Time;durP1;ratioP1;P1;durP2;ratioP2;P2;SDS_P1;SDS_P2;PMS_P1;PMS_P2;Temp;Humidity;BMP_temperature;BMP_pressure;BME280_temperature;BME280_humidity;BME280_pressure;Samples;Min_cycle;Max_cycle;Signal;HPM_P1;HPM_P2
2023/03/09 00:00:51;;;;;;;15.63;10.10;;;0.80;99.90;;;;;;5033848;28;20206;-63
2023/03/09 00:03:19;;;;;;;14.88;9.70;;;0.90;99.90;;;;;;5033486;28;20226;-64
2023/03/09 00:05:54;;;;;;;17.60;10.55;;;0.80;99.90;;;;;;5034121;28;20210;-63
2023/03/09 00:08:21;;;;;;;13.02;8.50;;;0.80;99.90;;;;;;5033387;28;20194;-63
2023/03/09 00:10:50;;;;;;;15.48;10.70;;;0.80;99.90;;;;;;5032937;28;20672;-63
2023/03/09 00:13:17;;;;;;;11.70;8.48;;;0.80;99.90;;;;;;5033356;28;20241;-63
2023/03/09 00:15:43;;;;;;;17.85;11.02;;;0.80;99.90;;;;;;5033199;28;20222;-63
2023/03/09 00:18:10;;;;;;;15.73;10.02;;;0.80;99.90;;;;;;5034124;28;20213;-63
2023/03/09 00:20:39;;;;;;;16.92;10.75;;;0.80;99.90;;;;;;5033626;28;20202;-64
2023/03/09 00:23:10;;;;;;;15.18;9.63;;;0.80;99.90;;;;;;5033199;28;20222;-63
2023/03/09 00:25:37;;;;;;;17.20;11.05;;;0.70;99.90;;;;;;5032823;28;20609;-64
2023/03/09 00:28:04;;;;;;;13.05;9.45;;;0.70;99.90;;;;;;5036960;28;20202;-63
2023/03/09 00:30:31;;;;;;;12.63;9.45;;;0.70;99.90;;;;;;5037117;28;20229;-64
2023/03/09 00:32:57;;;;;;;13.82;9.30;;;0.70;99.90;;;;;;5036921;28;20230;-63
2023/03/09 00:35:24;;;;;;;13.05;8.98;;;0.70;99.90;;;;;;5036948;28;20210;-63
2023/03/09 00:37:52;;;;;;;13.98;10.20;;;0.70;99.90;;;;;;5036945;28;20210;-63
2023/03/09 00:40:19;;;;;;;14.52;10.30;;;0.70;99.90;;;;;;5037091;28;20225;-63
2023/03/09 00:42:46;;;;;;;16.30;9.55;;;0.70;99.90;;;;;;5037407;28;20222;-65
2023/03/09 00:45:15;;;;;;;16.13;9.68;;;0.70;99.90;;;;;;5037477;28;20198;-64
2023/03/09 00:47:42;;;;;;;16.08;9.35;;;0.70;99.90;;;;;;5036954;28;20198;-64
2023/03/09 00:50:10;;;;;;;14.18;9.35;;;0.60;99.90;;;;;;5037007;28;20584;-64
2023/03/09 00:52:37;;;;;;;13.48;9.80;;;0.70;99.90;;;;;;5036882;28;20593;-64
2023/03/09 00:55:06;;;;;;;18.95;10.73;;;0.60;99.90;;;;;;5037028;28;20202;-63
2023/03/09 00:57:34;;;;;;;16.13;8.80;;;0.60;99.90;;;;;;5036681;28;20222;-62
2023/03/09 01:00:01;;;;;;;16.23;10.57;;;0.60;99.90;;;;;;5036791;28;20206;-63
2023/03/09 01:02:28;;;;;;;13.60;8.77;;;0.70;99.90;;;;;;5036628;28;20222;-63
2023/03/09 01:04:55;;;;;;;15.25;9.90;;;0.60;99.90;;;;;;5036555;28;20202;-63
2023/03/09 01:07:23;;;;;;;14.80;9.10;;;0.70;99.90;;;;;;5036622;28;20202;-63
2023/03/09 01:09:50;;;;;;;16.30;10.38;;;0.70;99.90;;;;;;5036387;28;20202;-62
2023/03/09 01:12:18;;;;;;;14.55;9.32;;;0.70;99.90;;;;;;5036269;28;20241;-63
2023/03/09 01:14:45;;;;;;;14.82;8.90;;;0.70;99.90;;;;;;5038199;28;20206;-63
2023/03/09 01:17:12;;;;;;;14.45;10.00;;;0.70;99.90;;;;;;5038333;28;20226;-64
2023/03/09 01:19:39;;;;;;;18.00;9.60;;;0.70;99.90;;;;;;5039020;28;20198;-63
2023/03/09 01:22:06;;;;;;;17.33;10.13;;;0.70;99.90;;;;;;5039302;28;20222;-63
2023/03/09 01:24:32;;;;;;;16.08;10.05;;;0.70;99.90;;;;;;5040394;28;20202;-63
2023/03/09 01:26:59;;;;;;;15.80;10.30;;;0.70;99.90;;;;;;5040251;28;20198;-63
2023/03/09 01:29:27;;;;;;;14.18;9.52;;;0.70;99.90;;;;;;5041204;28;20205;-64
2023/03/09 01:31:54;;;;;;;18.63;11.00;;;0.70;99.90;;;;;;5040402;28;20233;-64
2023/03/09 01:34:21;;;;;;;16.90;10.50;;;0.70;99.90;;;;;;5040198;28;20209;-63
2023/03/09 01:36:48;;;;;;;18.17;11.82;;;0.70;99.90;;;;;;5040675;28;20264;-64
2023/03/09 01:39:14;;;;;;;16.17;10.45;;;0.70;99.90;;;;;;5038683;28;20206;-63
2023/03/09 01:41:41;;;;;;;13.65;8.80;;;0.70;99.90;;;;;;5039160;28;20314;-63
2023/03/09 01:44:11;;;;;;;17.38;10.05;;;0.70;99.90;;;;;;5038842;28;20208;-63
2023/03/09 01:46:52;;;;;;;15.35;9.88;;;0.60;99.90;;;;;;5039853;28;20621;-64
2023/03/09 01:49:26;;;;;;;16.50;10.57;;;0.60;99.90;;;;;;5038191;28;20253;-63
2023/03/09 01:52:00;;;;;;;14.77;9.10;;;0.60;99.90;;;;;;5038400;28;20230;-64
2023/03/09 01:54:31;;;;;;;17.20;9.48;;;0.60;99.90;;;;;;5039200;28;20186;-63
2023/03/09 01:57:04;;;;;;;14.07;9.40;;;0.60;99.90;;;;;;5037457;28;20207;-63
2023/03/09 01:59:33;;;;;;;14.00;9.20;;;0.60;99.90;;;;;;5036004;28;20194;-63
2023/03/09 02:02:03;;;;;;;16.83;10.23;;;0.60;99.90;;;;;;5035930;28;20233;-62
2023/03/09 02:04:34;;;;;;;15.13;9.80;;;0.60;99.90;;;;;;5035476;28;20209;-63
2023/03/09 02:07:01;;;;;;;22.70;11.38;;;0.50;99.90;;;;;;5035482;28;20546;-63
2023/03/09 02:09:36;;;;;;;17.65;10.68;;;0.50;99.90;;;;;;5035522;28;20212;-63
2023/03/09 02:12:03;;;;;;;16.50;10.63;;;0.50;99.90;;;;;;5035300;28;20237;-63
2023/03/09 02:14:30;;;;;;;16.00;10.25;;;0.50;99.90;;;;;;5036161;28;20210;-63
2023/03/09 02:16:57;;;;;;;13.65;9.30;;;0.50;99.90;;;;;;5035076;28;20648;-63
2023/03/09 02:19:37;;;;;;;14.90;10.35;;;0.50;99.90;;;;;;5035384;28;20202;-63
2023/03/09 02:22:04;;;;;;;14.65;9.32;;;0.60;99.90;;;;;;5034971;28;20800;-63
2023/03/09 02:24:40;;;;;;;13.13;8.48;;;0.50;99.90;;;;;;5035264;28;20222;-64
2023/03/09 02:27:15;;;;;;;15.88;10.35;;;0.60;99.90;;;;;;5035287;28;20189;-63
2023/03/09 02:29:42;;;;;;;16.00;9.20;;;0.60;99.90;;;;;;5035410;28;20190;-63
2023/03/09 02:32:09;;;;;;;11.30;8.35;;;0.60;99.90;;;;;;5034885;28;20230;-63
2023/03/09 02:34:36;;;;;;;12.82;8.48;;;0.50;99.90;;;;;;5035097;28;20207;-63
2023/03/09 02:37:02;;;;;;;12.07;8.00;;;0.50;99.90;;;;;;5034518;28;20739;-63
2023/03/09 02:39:35;;;;;;;11.70;8.55;;;0.50;99.90;;;;;;5034835;28;20206;-64
2023/03/09 02:42:03;;;;;;;13.90;9.40;;;0.50;99.90;;;;;;5034344;28;20580;-62
2023/03/09 02:44:33;;;;;;;16.63;9.05;;;0.50;99.90;;;;;;5034715;28;20252;-63
2023/03/09 02:47:01;;;;;;;11.77;8.48;;;0.50;99.90;;;;;;5034765;28;20206;-63
2023/03/09 02:49:27;;;;;;;16.95;9.60;;;0.50;99.90;;;;;;5034160;28;20216;-64
2023/03/09 02:51:54;;;;;;;15.45;9.60;;;0.50;99.90;;;;;;5034422;28;20245;-63
2023/03/09 02:54:21;;;;;;;14.35;9.82;;;0.40;99.90;;;;;;5034622;28;20214;-63
2023/03/09 02:56:48;;;;;;;10.77;8.07;;;0.40;99.90;;;;;;5034380;28;20225;-64
2023/03/09 02:59:14;;;;;;;13.27;8.90;;;0.40;99.90;;;;;;5034876;28;20203;-63
2023/03/09 03:01:42;;;;;;;12.00;8.57;;;0.40;99.90;;;;;;5033806;28;20715;-63
2023/03/09 03:04:09;;;;;;;14.32;8.85;;;0.40;99.90;;;;;;5033897;28;20210;-63
2023/03/09 03:06:36;;;;;;;15.15;9.85;;;0.40;99.90;;;;;;5034613;28;20552;-63
2023/03/09 03:09:03;;;;;;;15.57;9.27;;;0.40;99.90;;;;;;5033746;28;20584;-63
2023/03/09 03:11:29;;;;;;;17.17;9.13;;;0.30;99.90;;;;;;5057048;22;20238;-62
2023/03/09 03:13:56;;;;;;;13.38;9.52;;;0.30;99.90;;;;;;5036754;28;20557;-61
2023/03/09 03:16:23;;;;;;;14.50;8.63;;;0.30;99.90;;;;;;5037117;28;20230;-61
2023/03/09 03:18:52;;;;;;;15.32;8.55;;;0.40;99.90;;;;;;5036593;28;20206;-61
2023/03/09 03:21:18;;;;;;;18.10;9.75;;;0.40;99.90;;;;;;5036424;28;20203;-61
2023/03/09 03:23:45;;;;;;;13.15;9.38;;;0.30;99.90;;;;;;5037068;28;20222;-61
2023/03/09 03:26:13;;;;;;;17.20;10.05;;;0.30;99.90;;;;;;5036418;28;20571;-61
2023/03/09 03:28:40;;;;;;;16.85;10.23;;;0.30;99.90;;;;;;5037013;28;20590;-61
2023/03/09 03:31:06;;;;;;;13.65;8.63;;;0.30;99.90;;;;;;5038511;28;20206;-61
2023/03/09 03:33:34;;;;;;;15.98;9.05;;;0.30;99.90;;;;;;5037322;28;20279;-61
2023/03/09 03:36:02;;;;;;;16.17;9.98;;;0.30;99.90;;;;;;5037528;28;20289;-61
2023/03/09 03:38:28;;;;;;;16.38;9.73;;;0.30;99.90;;;;;;5036244;28;20226;-61
2023/03/09 03:40:55;;;;;;;14.75;9.93;;;0.30;99.90;;;;;;5034858;28;20201;-62
2023/03/09 03:43:22;;;;;;;17.55;11.38;;;0.30;99.90;;;;;;5034335;28;20230;-62
2023/03/09 03:45:49;;;;;;;18.40;10.23;;;0.30;99.90;;;;;;5034278;28;20202;-62
2023/03/09 03:48:16;;;;;;;16.60;9.00;;;0.30;99.90;;;;;;5034190;28;20194;-61
2023/03/09 03:50:43;;;;;;;16.58;10.10;;;0.30;99.90;;;;;;5033857;28;20202;-61
2023/03/09 03:53:11;;;;;;;18.35;10.60;;;0.30;99.90;;;;;;5036785;28;20218;-62
2023/03/09 03:55:37;;;;;;;15.68;10.20;;;0.30;99.90;;;;;;5034271;28;20206;-61
2023/03/09 03:58:04;;;;;;;16.58;10.02;;;0.30;99.90;;;;;;5033453;28;20221;-62
2023/03/09 04:00:31;;;;;;;19.60;11.50;;;0.30;99.90;;;;;;5037192;28;20198;-62
2023/03/09 04:02:58;;;;;;;23.60;12.98;;;0.30;99.90;;;;;;5037099;28;20580;-62
2023/03/09 04:05:25;;;;;;;19.63;11.50;;;0.30;99.90;;;;;;5041338;28;20202;-61
2023/03/09 04:11:22;;;;;;;20.83;12.65;;;0.30;99.90;;;;;;5092923;28;20554;-60
2023/03/09 04:13:49;;;;;;;19.00;10.80;;;0.30;99.90;;;;;;5095419;28;20291;-61
2023/03/09 04:16:16;;;;;;;21.20;11.98;;;0.40;99.90;;;;;;5096933;28;20250;-61
2023/03/09 04:18:43;;;;;;;22.83;11.73;;;0.40;99.90;;;;;;5092738;28;20208;-61
2023/03/09 04:21:10;;;;;;;22.38;11.15;;;0.40;99.90;;;;;;5091063;28;20678;-61
2023/03/09 04:23:36;;;;;;;22.65;12.30;;;0.40;99.90;;;;;;5102389;22;20236;-64
2023/03/09 04:26:05;;;;;;;25.85;12.80;;;0.40;99.90;;;;;;5070862;28;20559;-64
2023/03/09 04:28:35;;;;;;;25.25;11.95;;;0.40;99.90;;;;;;5069974;28;20201;-64
2023/03/09 04:31:01;;;;;;;25.67;14.55;;;0.40;99.90;;;;;;5070085;28;20224;-64
2023/03/09 04:33:28;;;;;;;23.70;13.38;;;0.40;99.90;;;;;;5069655;28;20740;-63
2023/03/09 04:35:55;;;;;;;22.92;12.32;;;0.40;99.90;;;;;;5070033;28;20205;-64
2023/03/09 04:38:22;;;;;;;26.52;13.98;;;0.40;99.90;;;;;;5069921;28;20205;-63
2023/03/09 04:40:48;;;;;;;23.70;12.45;;;0.40;99.90;;;;;;5070087;28;20568;-64
2023/03/09 04:43:15;;;;;;;23.27;12.82;;;0.40;99.90;;;;;;5069712;28;20232;-63
2023/03/09 04:45:43;;;;;;;23.98;12.73;;;0.40;99.90;;;;;;5069474;28;20693;-64
2023/03/09 04:48:10;;;;;;;24.05;13.23;;;0.40;99.90;;;;;;5069674;28;20204;-64
2023/03/09 04:50:37;;;;;;;25.45;14.50;;;0.40;99.90;;;;;;5069924;28;20224;-63
2023/03/09 04:53:03;;;;;;;24.08;12.77;;;0.40;99.90;;;;;;5069880;28;20224;-64
2023/03/09 04:55:30;;;;;;;25.73;14.15;;;0.40;99.90;;;;;;5069576;28;20212;-64
2023/03/09 04:57:57;;;;;;;23.65;13.50;;;0.40;99.90;;;;;;5069298;28;20205;-64
2023/03/09 05:00:25;;;;;;;23.73;12.82;;;0.40;99.90;;;;;;5069187;28;20220;-64
2023/03/09 05:02:53;;;;;;;27.13;13.43;;;0.40;99.90;;;;;;5069144;28;20759;-65
2023/03/09 05:05:19;;;;;;;18.50;11.80;;;0.40;99.90;;;;;;5069220;28;20675;-63
2023/03/09 05:07:46;;;;;;;24.33;12.68;;;0.40;99.90;;;;;;5069209;28;20205;-64
2023/03/09 05:10:13;;;;;;;26.83;12.05;;;0.40;99.90;;;;;;5069461;28;20216;-64
2023/03/09 05:12:40;;;;;;;26.38;15.45;;;0.40;99.90;;;;;;5069288;28;20228;-65
2023/03/09 05:15:08;;;;;;;26.98;15.15;;;0.40;99.90;;;;;;5069444;28;20212;-64
2023/03/09 05:17:35;;;;;;;25.23;13.65;;;0.40;99.90;;;;;;5069345;28;20208;-64
2023/03/09 05:20:09;;;;;;;22.98;12.02;;;0.40;99.90;;;;;;5069218;28;20194;-64
2023/03/09 05:22:37;;;;;;;23.50;13.10;;;0.40;99.90;;;;;;5056430;28;20299;-64
2023/03/09 05:25:04;;;;;;;21.77;12.80;;;0.40;99.90;;;;;;5055902;28;20667;-64
2023/03/09 05:27:31;;;;;;;27.88;13.95;;;0.40;99.90;;;;;;5055997;28;20202;-63
2023/03/09 05:29:58;;;;;;;21.48;12.40;;;0.40;99.90;;;;;;5055982;28;20224;-64
2023/03/09 05:32:24;;;;;;;24.55;12.77;;;0.40;99.90;;;;;;5055529;28;20224;-65
2023/03/09 05:34:51;;;;;;;26.05;12.05;;;0.40;99.90;;;;;;5055940;28;20202;-64
2023/03/09 05:37:19;;;;;;;25.65;14.10;;;0.40;99.90;;;;;;5055613;28;20198;-65
2023/03/09 05:39:46;;;;;;;22.75;12.68;;;0.40;99.90;;;;;;5055331;28;20202;-65
2023/03/09 05:42:13;;;;;;;24.38;13.82;;;0.40;99.90;;;;;;5055485;28;20735;-64
2023/03/09 05:44:40;;;;;;;25.40;14.00;;;0.40;99.90;;;;;;5055517;28;20667;-65
2023/03/09 05:47:07;;;;;;;26.13;12.90;;;0.40;99.90;;;;;;5056291;28;20198;-65
2023/03/09 05:49:33;;;;;;;24.95;12.40;;;0.40;99.90;;;;;;5056298;28;20212;-64
2023/03/09 05:52:00;;;;;;;26.25;13.52;;;0.50;99.90;;;;;;5058832;28;20205;-66
2023/03/09 05:54:28;;;;;;;20.65;13.90;;;0.50;99.90;;;;;;5044256;28;20599;-64
2023/03/09 05:56:56;;;;;;;22.73;13.15;;;0.50;99.90;;;;;;5066306;28;20674;-65
2023/03/09 05:59:23;;;;;;;21.95;11.45;;;0.50;99.90;;;;;;5059265;28;20248;-63
2023/03/09 06:01:50;;;;;;;24.35;14.20;;;0.50;99.90;;;;;;5056249;28;20198;-63
2023/03/09 06:04:17;;;;;;;25.23;14.02;;;0.50;99.90;;;;;;5055659;28;20224;-64
2023/03/09 06:06:43;;;;;;;20.83;12.68;;;0.50;99.90;;;;;;5054847;28;20210;-65
2023/03/09 06:09:10;;;;;;;18.20;11.48;;;0.50;99.90;;;;;;5061091;28;20201;-65
2023/03/09 06:11:38;;;;;;;26.85;14.43;;;0.60;99.90;;;;;;5045604;28;20220;-65
2023/03/09 06:14:05;;;;;;;23.58;13.35;;;0.60;99.90;;;;;;5058084;28;20225;-66
2023/03/09 06:16:32;;;;;;;21.92;12.90;;;0.60;99.90;;;;;;5054931;28;20198;-63
2023/03/09 06:18:59;;;;;;;23.20;13.13;;;0.60;99.90;;;;;;5058727;28;20280;-64
2023/03/09 06:21:26;;;;;;;26.90;13.43;;;0.60;99.90;;;;;;5045487;28;20198;-64
2023/03/09 06:23:54;;;;;;;20.70;12.10;;;0.60;99.90;;;;;;5035720;28;20242;-64
2023/03/09 06:26:21;;;;;;;19.70;12.93;;;0.60;99.90;;;;;;5056160;28;20202;-66
2023/03/09 06:28:49;;;;;;;19.85;12.38;;;0.60;99.90;;;;;;5057056;28;20218;-65
2023/03/09 06:31:17;;;;;;;23.23;12.20;;;0.70;99.90;;;;;;5057611;28;20568;-66
2023/03/09 06:33:46;;;;;;;23.20;12.35;;;0.70;99.90;;;;;;5057709;28;20695;-64
2023/03/09 06:36:15;;;;;;;20.98;13.05;;;0.70;99.90;;;;;;5059863;28;20197;-65
2023/03/09 06:38:42;;;;;;;18.67;12.52;;;0.70;99.90;;;;;;5055230;28;20284;-65
2023/03/09 06:41:09;;;;;;;21.00;11.57;;;0.80;99.90;;;;;;5046863;28;20233;-64
2023/03/09 06:43:36;;;;;;;20.95;11.45;;;0.80;99.90;;;;;;5037709;28;20718;-63
2023/03/09 06:46:05;;;;;;;22.30;12.32;;;0.80;99.90;;;;;;5053029;28;20202;-65
2023/03/09 06:48:31;;;;;;;18.23;12.50;;;0.90;99.90;;;;;;5059903;28;20209;-65
2023/03/09 06:50:58;;;;;;;19.17;11.23;;;0.90;99.90;;;;;;5052605;28;20211;-64
2023/03/09 06:53:25;;;;;;;19.48;11.98;;;0.90;99.90;;;;;;5046792;28;20225;-65
2023/03/09 06:55:52;;;;;;;18.23;11.32;;;0.90;99.90;;;;;;5055188;28;20648;-67
2023/03/09 06:58:18;;;;;;;17.63;10.55;;;1.00;99.90;;;;;;5053407;28;20201;-69
2023/03/09 07:00:46;;;;;;;18.77;11.07;;;1.00;99.90;;;;;;5035810;28;20529;-65
2023/03/09 07:03:17;;;;;;;18.73;11.45;;;1.10;99.90;;;;;;5070888;28;20285;-65
2023/03/09 07:05:44;;;;;;;15.85;10.82;;;1.10;99.90;;;;;;5073684;28;20182;-66
2023/03/09 07:08:11;;;;;;;21.83;11.20;;;1.10;99.90;;;;;;5054761;28;20205;-65
2023/03/09 07:10:38;;;;;;;21.15;11.30;;;1.10;99.90;;;;;;5053830;28;20222;-64
2023/03/09 07:13:04;;;;;;;16.45;9.88;;;1.10;99.90;;;;;;5054935;28;20237;-67
2023/03/09 07:15:31;;;;;;;16.23;10.32;;;1.20;99.90;;;;;;5053851;28;20675;-65
2023/03/09 07:17:58;;;;;;;19.45;11.63;;;1.20;99.90;;;;;;5054180;28;20202;-65
2023/03/09 07:20:27;;;;;;;19.73;9.82;;;1.30;99.90;;;;;;5053863;28;20230;-64
2023/03/09 07:22:54;;;;;;;16.02;10.60;;;1.30;99.90;;;;;;5053937;28;20644;-65
2023/03/09 07:25:21;;;;;;;20.08;10.77;;;1.40;99.90;;;;;;5053765;28;20577;-65
2023/03/09 07:27:48;;;;;;;17.58;10.55;;;1.40;99.90;;;;;;5053874;28;20248;-66
2023/03/09 07:30:16;;;;;;;18.80;10.80;;;1.50;99.90;;;;;;5053331;28;20312;-66
2023/03/09 07:32:43;;;;;;;24.23;11.23;;;1.50;99.90;;;;;;5053697;28;20221;-65
2023/03/09 07:35:10;;;;;;;16.77;9.98;;;1.60;99.90;;;;;;5054139;28;20205;-66
2023/03/09 07:37:38;;;;;;;16.77;10.30;;;1.60;99.90;;;;;;5053921;28;20213;-65
2023/03/09 07:40:06;;;;;;;17.02;9.10;;;1.60;99.90;;;;;;5053669;28;20202;-65
2023/03/09 07:42:33;;;;;;;19.70;11.10;;;1.60;99.90;;;;;;5053933;28;20232;-65
2023/03/09 07:44:59;;;;;;;13.93;9.18;;;1.50;99.90;;;;;;5053567;28;20205;-64
2023/03/09 07:47:26;;;;;;;14.32;9.48;;;1.50;99.90;;;;;;5053763;28;20210;-64
2023/03/09 07:49:53;;;;;;;16.33;10.55;;;1.50;99.90;;;;;;5053957;28;20228;-64
2023/03/09 07:52:20;;;;;;;17.65;11.20;;;1.50;99.90;;;;;;5053518;28;20244;-65
2023/03/09 07:54:51;;;;;;;15.60;10.57;;;1.50;99.90;;;;;;5053721;28;20205;-65
2023/03/09 07:57:18;;;;;;;16.70;10.27;;;1.50;99.90;;;;;;5053811;28;20187;-65
2023/03/09 07:59:45;;;;;;;15.23;9.65;;;1.50;99.90;;;;;;5054170;28;20252;-65
2023/03/09 08:02:12;;;;;;;15.48;9.90;;;1.50;99.90;;;;;;5054253;28;20690;-66
2023/03/09 08:04:39;;;;;;;17.42;9.45;;;1.50;99.90;;;;;;5054822;28;20213;-65
2023/03/09 08:07:06;;;;;;;12.45;8.90;;;1.50;99.90;;;;;;5054578;28;20220;-65
2023/03/09 08:09:33;;;;;;;16.13;10.90;;;1.50;99.90;;;;;;5054300;28;20201;-64
2023/03/09 08:12:01;;;;;;;16.67;10.52;;;1.60;99.90;;;;;;5053575;28;20258;-63
2023/03/09 08:14:27;;;;;;;16.67;10.43;;;1.60;99.90;;;;;;5053859;28;20300;-64
2023/03/09 08:16:54;;;;;;;15.70;9.90;;;1.60;99.90;;;;;;5053956;28;20202;-64
2023/03/09 08:19:21;;;;;;;18.63;10.15;;;1.60;99.90;;;;;;5053591;28;20209;-64
2023/03/09 08:21:48;;;;;;;16.05;10.65;;;1.60;99.90;;;;;;5054207;28;20194;-65
2023/03/09 08:24:15;;;;;;;19.58;12.10;;;1.60;99.90;;;;;;5054020;28;20229;-65
2023/03/09 08:26:42;;;;;;;17.83;11.07;;;1.60;99.90;;;;;;5056862;28;20208;-67
2023/03/09 08:29:11;;;;;;;16.67;11.50;;;1.70;99.90;;;;;;5058350;28;20574;-65
2023/03/09 08:31:38;;;;;;;19.35;10.80;;;1.70;99.90;;;;;;5060276;28;20231;-66
2023/03/09 08:34:05;;;;;;;16.08;10.40;;;1.70;99.90;;;;;;5060250;28;20221;-66
2023/03/09 08:36:32;;;;;;;15.05;10.27;;;1.60;99.90;;;;;;5060530;28;20209;-65
2023/03/09 08:38:59;;;;;;;16.48;11.02;;;1.60;99.90;;;;;;5060926;28;20212;-66
2023/03/09 08:41:27;;;;;;;16.40;10.68;;;1.70;99.90;;;;;;5060826;28;20309;-66
2023/03/09 08:43:55;;;;;;;14.93;10.23;;;1.70;99.90;;;;;;5059166;28;20660;-65
2023/03/09 08:46:24;;;;;;;20.15;10.90;;;1.80;99.90;;;;;;5057648;28;20201;-66
2023/03/09 08:48:50;;;;;;;17.35;10.40;;;1.90;99.90;;;;;;5055839;28;20205;-66
2023/03/09 08:51:18;;;;;;;14.82;10.48;;;2.00;99.90;;;;;;5055848;28;20226;-64
2023/03/09 08:53:45;;;;;;;17.05;10.85;;;2.00;99.90;;;;;;5054638;28;20719;-65
2023/03/09 08:56:13;;;;;;;18.27;11.07;;;2.10;99.90;;;;;;5055979;28;20209;-66
2023/03/09 08:58:40;;;;;;;15.05;10.23;;;2.10;99.90;;;;;;5059890;28;20213;-66
2023/03/09 09:01:09;;;;;;;16.58;10.70;;;2.20;99.90;;;;;;5059015;28;20202;-63
2023/03/09 09:03:38;;;;;;;13.45;9.75;;;2.20;99.90;;;;;;5058506;28;20218;-65
2023/03/09 09:06:07;;;;;;;13.90;9.07;;;2.30;99.90;;;;;;5057530;28;20202;-65
2023/03/09 09:08:34;;;;;;;15.38;9.85;;;2.30;99.90;;;;;;5057200;28;20206;-66
2023/03/09 09:11:06;;;;;;;16.52;10.85;;;2.30;99.90;;;;;;5057108;28;20277;-64
2023/03/09 09:13:33;;;;;;;13.05;9.48;;;2.30;99.90;;;;;;5058014;28;20244;-65
2023/03/09 09:16:00;;;;;;;14.85;10.52;;;2.30;99.90;;;;;;5059525;28;20202;-66
2023/03/09 09:18:27;;;;;;;15.73;10.00;;;2.40;99.90;;;;;;5057482;28;20572;-66
2023/03/09 09:20:55;;;;;;;15.10;9.40;;;2.40;99.90;;;;;;5057620;28;20672;-64
2023/03/09 09:23:22;;;;;;;15.27;10.77;;;2.40;99.90;;;;;;5057374;28;20233;-65
2023/03/09 09:25:55;;;;;;;14.55;10.10;;;2.50;99.90;;;;;;5057382;28;20208;-65
2023/03/09 09:28:21;;;;;;;17.83;11.55;;;2.60;99.90;;;;;;5056750;28;20220;-64
2023/03/09 09:30:54;;;;;;;15.50;9.45;;;2.60;99.90;;;;;;5056932;28;20202;-65
2023/03/09 09:33:21;;;;;;;14.70;10.20;;;2.70;99.90;;;;;;5056952;28;20230;-67
2023/03/09 09:35:57;;;;;;;15.70;11.13;;;2.70;99.90;;;;;;5057112;28;20205;-65
2023/03/09 09:38:25;;;;;;;15.30;10.00;;;2.70;99.90;;;;;;5057368;28;20181;-65
2023/03/09 09:40:53;;;;;;;13.98;10.27;;;2.70;99.90;;;;;;5056830;28;20247;-63
2023/03/09 09:43:20;;;;;;;16.55;10.70;;;2.80;99.90;;;;;;5056975;28;20312;-65
2023/03/09 09:45:47;;;;;;;19.40;11.35;;;2.90;99.90;;;;;;5058078;28;20209;-64
2023/03/09 09:48:17;;;;;;;22.42;11.77;;;2.90;99.90;;;;;;5057785;28;20201;-65
2023/03/09 09:51:10;;;;;;;15.20;11.20;;;2.90;99.90;;;;;;5057560;28;20206;-65
2023/03/09 09:53:50;;;;;;;19.80;11.18;;;3.00;99.90;;;;;;5057452;28;20325;-64
2023/03/09 09:56:22;;;;;;;20.70;11.75;;;3.10;99.90;;;;;;5057347;28;20255;-66
2023/03/09 09:58:54;;;;;;;20.63;10.52;;;3.10;99.90;;;;;;5058622;28;20200;-65
2023/03/09 10:01:26;;;;;;;24.38;12.82;;;3.10;99.90;;;;;;5057364;28;20183;-64
2023/03/09 10:03:59;;;;;;;23.98;13.05;;;3.20;99.90;;;;;;5055481;28;20726;-65
2023/03/09 10:06:29;;;;;;;18.52;10.75;;;3.30;99.90;;;;;;5055841;28;20186;-65
2023/03/09 10:08:59;;;;;;;23.58;12.65;;;3.30;99.90;;;;;;5055543;28;20217;-65
2023/03/09 10:11:28;;;;;;;24.35;12.43;;;3.30;99.90;;;;;;5055859;28;20233;-65
2023/03/09 10:14:01;;;;;;;21.10;11.48;;;3.30;99.90;;;;;;5055546;28;20642;-65
2023/03/09 10:16:34;;;;;;;20.00;11.88;;;3.30;99.90;;;;;;5055220;28;20631;-65
2023/03/09 10:19:04;;;;;;;22.77;12.68;;;3.30;99.90;;;;;;5055651;28;20189;-66
2023/03/09 10:21:37;;;;;;;31.92;16.00;;;3.40;99.90;;;;;;5056972;28;20259;-65
2023/03/09 10:24:19;;;;;;;30.13;14.82;;;3.50;99.90;;;;;;5082884;22;20229;-61
2023/03/09 10:26:52;;;;;;;32.47;15.82;;;3.50;99.90;;;;;;5063887;28;20190;-62
2023/03/09 10:29:26;;;;;;;22.25;13.55;;;3.60;99.90;;;;;;5059786;28;20265;-62
2023/03/09 10:31:58;;;;;;;24.35;13.80;;;3.60;99.90;;;;;;5059799;28;20284;-62
2023/03/09 10:34:27;;;;;;;26.75;13.90;;;3.60;99.90;;;;;;5059363;28;20226;-61
2023/03/09 10:37:00;;;;;;;30.67;13.90;;;3.60;99.90;;;;;;5058706;28;20292;-61
2023/03/09 10:39:33;;;;;;;27.60;14.18;;;3.60;99.90;;;;;;5057436;28;20190;-62
2023/03/09 10:42:12;;;;;;;26.77;15.02;;;3.70;99.90;;;;;;5057270;28;20236;-60
2023/03/09 10:44:38;;;;;;;33.05;15.90;;;3.70;99.90;;;;;;5055977;28;20276;-61
2023/03/09 10:47:05;;;;;;;30.15;14.48;;;3.60;99.90;;;;;;5055615;28;20514;-62
2023/03/09 10:49:32;;;;;;;23.20;13.30;;;3.60;99.90;;;;;;5055913;28;20202;-61
2023/03/09 10:52:03;;;;;;;29.92;15.43;;;3.60;99.90;;;;;;5055501;28;20585;-62
2023/03/09 10:54:36;;;;;;;26.55;15.18;;;3.70;99.90;;;;;;5055983;28;20224;-62
2023/03/09 10:57:20;;;;;;;30.92;15.70;;;3.80;99.90;;;;;;5056108;28;20560;-62
2023/03/09 10:59:56;;;;;;;21.98;12.43;;;3.90;99.90;;;;;;5056544;28;20201;-61
2023/03/09 11:02:30;;;;;;;24.55;13.48;;;4.00;99.90;;;;;;5055891;28;20216;-61
2023/03/09 11:04:57;;;;;;;25.73;11.65;;;4.00;99.90;;;;;;5055467;28;20601;-62
2023/03/09 11:07:29;;;;;;;23.35;13.82;;;4.00;99.90;;;;;;5055664;28;20576;-61
2023/03/09 11:09:55;;;;;;;23.25;14.20;;;4.00;99.90;;;;;;5055219;28;20205;-62
2023/03/09 11:12:27;;;;;;;21.42;14.20;;;4.00;99.90;;;;;;5054996;28;20226;-62
2023/03/09 11:14:56;;;;;;;23.48;14.73;;;4.00;99.90;;;;;;5055317;28;20218;-62
2023/03/09 11:17:37;;;;;;;30.48;15.32;;;3.90;99.90;;;;;;5054925;28;20212;-62
2023/03/09 11:20:28;;;;;;;27.45;15.40;;;3.80;99.90;;;;;;5054268;28;20274;-62
2023/03/09 11:23:00;;;;;;;25.77;15.38;;;3.60;99.90;;;;;;5055047;28;20201;-61
2023/03/09 11:25:43;;;;;;;28.17;17.27;;;3.60;99.90;;;;;;5054881;28;20234;-63
2023/03/09 11:28:19;;;;;;;30.52;16.95;;;3.50;99.90;;;;;;5055552;28;20201;-63
2023/03/09 11:30:48;;;;;;;27.45;16.92;;;3.50;99.90;;;;;;5054794;28;20204;-62
2023/03/09 11:33:18;;;;;;;23.75;14.30;;;3.40;99.90;;;;;;5054464;28;20236;-62
2023/03/09 11:35:49;;;;;;;27.20;15.90;;;3.50;99.90;;;;;;5054809;28;20196;-61
2023/03/09 11:38:19;;;;;;;28.52;15.40;;;3.50;99.90;;;;;;5055166;28;20192;-62
2023/03/09 11:40:47;;;;;;;26.42;15.05;;;3.50;99.90;;;;;;5054639;28;20210;-62
2023/03/09 11:43:21;;;;;;;34.60;16.40;;;3.50;99.90;;;;;;5054862;28;20202;-63
2023/03/09 11:45:48;;;;;;;33.03;18.45;;;3.50;99.90;;;;;;5055327;28;20193;-62
2023/03/09 11:48:22;;;;;;;30.98;14.77;;;3.50;99.90;;;;;;5055107;28;20201;-62
2023/03/09 11:50:59;;;;;;;34.47;19.25;;;3.60;99.90;;;;;;5055014;28;20193;-61
2023/03/09 11:53:31;;;;;;;37.20;18.88;;;3.60;99.90;;;;;;5054151;28;20210;-62
2023/03/09 11:56:02;;;;;;;28.63;16.02;;;3.60;99.90;;;;;;5054444;28;20189;-62
2023/03/09 11:58:35;;;;;;;28.65;15.85;;;3.70;99.90;;;;;;5055098;28;20182;-62
2023/03/09 12:01:09;;;;;;;26.88;16.27;;;3.60;99.90;;;;;;5055638;28;20243;-61
2023/03/09 12:03:43;;;;;;;29.50;16.80;;;3.60;99.90;;;;;;5055595;28;20185;-62
2023/03/09 12:06:28;;;;;;;31.58;18.10;;;3.60;99.90;;;;;;5055639;28;20185;-63
2023/03/09 12:08:59;;;;;;;27.35;15.73;;;3.60;99.90;;;;;;5054839;28;20197;-64
2023/03/09 12:11:31;;;;;;;27.70;15.05;;;3.60;99.90;;;;;;5055593;28;20197;-62
2023/03/09 12:14:02;;;;;;;30.75;16.38;;;3.50;99.90;;;;;;5054655;28;20560;-62
2023/03/09 12:16:33;;;;;;;32.58;15.98;;;3.60;99.90;;;;;;5054925;28;20282;-62
2023/03/09 12:19:04;;;;;;;25.00;14.95;;;3.60;99.90;;;;;;5053858;28;20213;-61
2023/03/09 12:21:34;;;;;;;28.13;14.93;;;3.60;99.90;;;;;;5055071;28;20356;-62
2023/03/09 12:24:26;;;;;;;24.08;15.32;;;3.60;99.90;;;;;;5053897;28;20280;-62
2023/03/09 12:27:02;;;;;;;27.27;16.33;;;3.50;99.90;;;;;;5053621;28;20185;-62
2023/03/09 12:29:35;;;;;;;29.88;15.60;;;3.40;99.90;;;;;;5053162;28;20696;-62
2023/03/09 12:32:32;;;;;;;27.45;14.88;;;3.40;99.90;;;;;;5055225;28;20205;-63
2023/03/09 12:35:01;;;;;;;25.70;16.75;;;3.30;99.90;;;;;;5057115;28;20222;-61
2023/03/09 12:37:54;;;;;;;31.08;16.35;;;3.30;99.90;;;;;;5057237;28;20205;-61
2023/03/09 12:40:31;;;;;;;33.17;15.95;;;3.30;99.90;;;;;;5064948;28;20209;-62
2023/03/09 12:43:21;;;;;;;35.00;17.40;;;3.50;99.90;;;;;;5067321;28;20204;-62
2023/03/09 12:45:51;;;;;;;30.27;15.73;;;3.50;99.90;;;;;;5067195;28;20236;-62
2023/03/09 12:48:25;;;;;;;34.33;16.17;;;3.60;99.90;;;;;;5067338;28;20210;-62
2023/03/09 12:51:01;;;;;;;23.50;14.75;;;3.60;99.90;;;;;;5068031;28;20261;-62